sensor_id;sensor_type;location;lat;lon;timestamp;P1;durP1;ratioP1;P2;durP2;ratioP2
26594;SDS011;14238;49.496;8.154;2024-02-15T00:01:54;4.07;;;3.77;;
26594;SDS011;14238;49.496;8.154;2024-02-15T00:04:19;4.57;;;3.40;;
26594;SDS011;14238;49.496;8.154;2024-02-15T00:06:45;3.33;;;3.13;;
26594;SDS011;14238;49.496;8.154;2024-02-15T00:09:10;3.67;;;3.30;;
26594;SDS011;14238;49.496;8.154;2024-02-15T00:11:36;3.30;;;3.07;;
26594;SDS011;14238;49.496;8.154;2024-02-15T00:14:04;3.90;;;3.63;;
26594;SDS011;14238;49.496;8.154;2024-02-15T00:16:29;3.83;;;3.53;;
26594;SDS011;14238;49.496;8.154;2024-02-15T00:18:55;3.63;;;3.43;;
26594;SDS011;14238;49.496;8.154;2024-02-15T00:21:21;3.20;;;2.90;;
26594;SDS011;14238;49.496;8.154;2024-02-15T00:23:48;3.47;;;3.20;;
26594;SDS011;14238;49.496;8.154;2024-02-15T00:26:13;3.63;;;3.33;;
26594;SDS011;14238;49.496;8.154;2024-02-15T00:28:41;3.90;;;3.60;;
26594;SDS011;14238;49.496;8.154;2024-02-15T00:31:07;3.53;;;3.33;;
26594;SDS011;14238;49.496;8.154;2024-02-15T00:33:33;3.33;;;3.13;;
26594;SDS011;14238;49.496;8.154;2024-02-15T00:36:01;2.97;;;2.77;;
26594;SDS011;14238;49.496;8.154;2024-02-15T00:38:28;2.83;;;2.63;;
26594;SDS011;14238;49.496;8.154;2024-02-15T00:40:54;3.70;;;3.00;;
26594;SDS011;14238;49.496;8.154;2024-02-15T00:43:20;4.00;;;3.43;;
26594;SDS011;14238;49.496;8.154;2024-02-15T00:45:45;11.10;;;7.33;;
26594;SDS011;14238;49.496;8.154;2024-02-15T00:48:11;6.03;;;5.43;;
26594;SDS011;14238;49.496;8.154;2024-02-15T00:50:37;7.57;;;6.00;;
26594;SDS011;14238;49.496;8.154;2024-02-15T00:53:03;4.23;;;3.10;;
26594;SDS011;14238;49.496;8.154;2024-02-15T00:55:28;4.63;;;3.43;;
26594;SDS011;14238;49.496;8.154;2024-02-15T00:57:54;3.63;;;3.33;;
26594;SDS011;14238;49.496;8.154;2024-02-15T01:00:20;3.43;;;3.10;;
26594;SDS011;14238;49.496;8.154;2024-02-15T01:02:45;4.63;;;2.67;;
26594;SDS011;14238;49.496;8.154;2024-02-15T01:05:11;3.23;;;2.97;;
26594;SDS011;14238;49.496;8.154;2024-02-15T01:07:40;2.80;;;2.60;;
26594;SDS011;14238;49.496;8.154;2024-02-15T01:10:06;5.63;;;3.17;;
26594;SDS011;14238;49.496;8.154;2024-02-15T01:12:32;3.57;;;2.70;;
26594;SDS011;14238;49.496;8.154;2024-02-15T01:14:58;4.90;;;2.77;;
26594;SDS011;14238;49.496;8.154;2024-02-15T01:17:23;6.00;;;2.77;;
26594;SDS011;14238;49.496;8.154;2024-02-15T01:19:49;3.10;;;2.87;;
26594;SDS011;14238;49.496;8.154;2024-02-15T01:22:14;4.07;;;3.67;;
26594;SDS011;14238;49.496;8.154;2024-02-15T01:24:40;3.00;;;2.80;;
26594;SDS011;14238;49.496;8.154;2024-02-15T01:27:06;3.77;;;3.00;;
26594;SDS011;14238;49.496;8.154;2024-02-15T01:29:32;2.70;;;2.50;;
26594;SDS011;14238;49.496;8.154;2024-02-15T01:31:58;2.73;;;2.40;;
26594;SDS011;14238;49.496;8.154;2024-02-15T01:34:23;2.93;;;2.40;;
26594;SDS011;14238;49.496;8.154;2024-02-15T01:36:49;5.50;;;2.10;;
26594;SDS011;14238;49.496;8.154;2024-02-15T01:39:15;3.63;;;2.50;;
26594;SDS011;14238;49.496;8.154;2024-02-15T01:41:45;3.13;;;2.77;;
26594;SDS011;14238;49.496;8.154;2024-02-15T01:44:13;2.37;;;2.27;;
26594;SDS011;14238;49.496;8.154;2024-02-15T01:46:38;3.20;;;2.90;;
26594;SDS011;14238;49.496;8.154;2024-02-15T01:49:05;12.10;;;8.53;;
26594;SDS011;14238;49.496;8.154;2024-02-15T01:51:32;3.83;;;3.37;;
26594;SDS011;14238;49.496;8.154;2024-02-15T01:54:02;5.17;;;3.37;;
26594;SDS011;14238;49.496;8.154;2024-02-15T01:56:28;4.43;;;2.93;;
26594;SDS011;14238;49.496;8.154;2024-02-15T01:58:55;4.90;;;2.60;;
26594;SDS011;14238;49.496;8.154;2024-02-15T02:01:22;3.63;;;2.63;;
26594;SDS011;14238;49.496;8.154;2024-02-15T02:03:48;4.20;;;2.60;;
26594;SDS011;14238;49.496;8.154;2024-02-15T02:06:13;2.50;;;2.30;;
26594;SDS011;14238;49.496;8.154;2024-02-15T02:08:39;4.50;;;3.27;;
26594;SDS011;14238;49.496;8.154;2024-02-15T02:11:05;4.63;;;2.67;;
26594;SDS011;14238;49.496;8.154;2024-02-15T02:13:31;2.87;;;2.60;;
26594;SDS011;14238;49.496;8.154;2024-02-15T02:15:56;4.23;;;2.50;;
26594;SDS011;14238;49.496;8.154;2024-02-15T02:18:22;3.37;;;2.33;;
26594;SDS011;14238;49.496;8.154;2024-02-15T02:20:49;4.13;;;3.10;;
26594;SDS011;14238;49.496;8.154;2024-02-15T02:23:15;2.90;;;2.70;;
26594;SDS011;14238;49.496;8.154;2024-02-15T02:25:43;3.33;;;3.10;;
26594;SDS011;14238;49.496;8.154;2024-02-15T02:28:11;5.40;;;3.73;;
26594;SDS011;14238;49.496;8.154;2024-02-15T02:30:37;4.53;;;4.17;;
26594;SDS011;14238;49.496;8.154;2024-02-15T02:33:12;4.03;;;3.70;;
26594;SDS011;14238;49.496;8.154;2024-02-15T02:35:43;5.17;;;3.97;;
26594;SDS011;14238;49.496;8.154;2024-02-15T02:38:09;3.53;;;3.23;;
26594;SDS011;14238;49.496;8.154;2024-02-15T02:40:35;3.67;;;3.40;;
26594;SDS011;14238;49.496;8.154;2024-02-15T02:43:01;3.50;;;3.27;;
26594;SDS011;14238;49.496;8.154;2024-02-15T02:45:26;3.77;;;3.47;;
26594;SDS011;14238;49.496;8.154;2024-02-15T02:47:52;3.77;;;3.47;;
26594;SDS011;14238;49.496;8.154;2024-02-15T02:50:18;4.80;;;3.60;;
26594;SDS011;14238;49.496;8.154;2024-02-15T02:52:45;3.93;;;3.50;;
26594;SDS011;14238;49.496;8.154;2024-02-15T02:55:13;3.73;;;3.40;;
26594;SDS011;14238;49.496;8.154;2024-02-15T02:57:39;7.07;;;3.60;;
26594;SDS011;14238;49.496;8.154;2024-02-15T03:00:09;3.30;;;3.10;;
26594;SDS011;14238;49.496;8.154;2024-02-15T03:02:37;6.87;;;3.00;;
26594;SDS011;14238;49.496;8.154;2024-02-15T03:05:04;7.00;;;2.50;;
26594;SDS011;14238;49.496;8.154;2024-02-15T03:07:34;2.73;;;2.50;;
26594;SDS011;14238;49.496;8.154;2024-02-15T03:10:00;6.27;;;3.37;;
26594;SDS011;14238;49.496;8.154;2024-02-15T03:12:27;3.40;;;2.10;;
26594;SDS011;14238;49.496;8.154;2024-02-15T03:14:54;3.63;;;2.30;;
26594;SDS011;14238;49.496;8.154;2024-02-15T03:17:20;2.17;;;2.07;;
26594;SDS011;14238;49.496;8.154;2024-02-15T03:19:47;3.83;;;2.07;;
26594;SDS011;14238;49.496;8.154;2024-02-15T03:22:13;7.53;;;2.37;;
26594;SDS011;14238;49.496;8.154;2024-02-15T03:24:39;2.80;;;2.13;;
26594;SDS011;14238;49.496;8.154;2024-02-15T03:27:05;2.73;;;2.30;;
26594;SDS011;14238;49.496;8.154;2024-02-15T03:29:31;3.67;;;2.63;;
26594;SDS011;14238;49.496;8.154;2024-02-15T03:31:56;6.33;;;2.70;;
26594;SDS011;14238;49.496;8.154;2024-02-15T03:34:22;3.60;;;2.57;;
26594;SDS011;14238;49.496;8.154;2024-02-15T03:36:48;2.17;;;1.97;;
26594;SDS011;14238;49.496;8.154;2024-02-15T03:39:18;2.80;;;2.60;;
26594;SDS011;14238;49.496;8.154;2024-02-15T03:41:44;6.43;;;3.03;;
26594;SDS011;14238;49.496;8.154;2024-02-15T03:44:11;4.00;;;2.27;;
26594;SDS011;14238;49.496;8.154;2024-02-15T03:46:37;4.33;;;2.07;;
26594;SDS011;14238;49.496;8.154;2024-02-15T03:49:02;2.13;;;1.80;;
26594;SDS011;14238;49.496;8.154;2024-02-15T03:51:28;2.43;;;2.23;;
26594;SDS011;14238;49.496;8.154;2024-02-15T03:53:54;4.97;;;2.23;;
26594;SDS011;14238;49.496;8.154;2024-02-15T03:56:19;2.17;;;1.97;;
26594;SDS011;14238;49.496;8.154;2024-02-15T03:58:48;1.93;;;1.83;;
26594;SDS011;14238;49.496;8.154;2024-02-15T04:01:15;5.63;;;2.50;;
26594;SDS011;14238;49.496;8.154;2024-02-15T04:03:41;2.37;;;2.13;;
26594;SDS011;14238;49.496;8.154;2024-02-15T04:06:06;3.17;;;2.27;;
26594;SDS011;14238;49.496;8.154;2024-02-15T04:08:32;3.10;;;2.00;;
26594;SDS011;14238;49.496;8.154;2024-02-15T04:10:58;4.60;;;2.50;;
26594;SDS011;14238;49.496;8.154;2024-02-15T04:13:24;3.13;;;2.23;;
26594;SDS011;14238;49.496;8.154;2024-02-15T04:15:49;1.97;;;1.87;;
26594;SDS011;14238;49.496;8.154;2024-02-15T04:18:17;3.93;;;2.13;;
26594;SDS011;14238;49.496;8.154;2024-02-15T04:20:44;2.20;;;2.10;;
26594;SDS011;14238;49.496;8.154;2024-02-15T04:23:11;3.80;;;2.20;;
26594;SDS011;14238;49.496;8.154;2024-02-15T04:25:37;2.50;;;2.30;;
26594;SDS011;14238;49.496;8.154;2024-02-15T04:28:04;3.20;;;2.43;;
26594;SDS011;14238;49.496;8.154;2024-02-15T04:30:30;2.37;;;2.20;;
26594;SDS011;14238;49.496;8.154;2024-02-15T04:32:56;2.57;;;2.20;;
26594;SDS011;14238;49.496;8.154;2024-02-15T04:35:21;2.40;;;1.60;;
26594;SDS011;14238;49.496;8.154;2024-02-15T04:37:47;2.50;;;1.97;;
26594;SDS011;14238;49.496;8.154;2024-02-15T04:40:14;2.50;;;2.27;;
26594;SDS011;14238;49.496;8.154;2024-02-15T04:42:40;2.97;;;1.90;;
26594;SDS011;14238;49.496;8.154;2024-02-15T04:45:08;2.00;;;1.70;;
26594;SDS011;14238;49.496;8.154;2024-02-15T04:47:36;2.23;;;1.80;;
26594;SDS011;14238;49.496;8.154;2024-02-15T04:50:02;2.77;;;2.10;;
26594;SDS011;14238;49.496;8.154;2024-02-15T04:52:30;4.37;;;2.90;;
26594;SDS011;14238;49.496;8.154;2024-02-15T04:54:56;3.60;;;2.87;;
26594;SDS011;14238;49.496;8.154;2024-02-15T04:57:25;3.00;;;2.20;;
26594;SDS011;14238;49.496;8.154;2024-02-15T04:59:53;2.50;;;2.30;;
26594;SDS011;14238;49.496;8.154;2024-02-15T05:02:19;2.10;;;1.90;;
26594;SDS011;14238;49.496;8.154;2024-02-15T05:04:44;2.87;;;2.20;;
26594;SDS011;14238;49.496;8.154;2024-02-15T05:07:10;3.07;;;2.70;;
26594;SDS011;14238;49.496;8.154;2024-02-15T05:09:38;2.97;;;2.67;;
26594;SDS011;14238;49.496;8.154;2024-02-15T05:12:04;2.93;;;2.13;;
26594;SDS011;14238;49.496;8.154;2024-02-15T05:14:30;1.90;;;1.80;;
26594;SDS011;14238;49.496;8.154;2024-02-15T05:16:56;2.10;;;1.90;;
26594;SDS011;14238;49.496;8.154;2024-02-15T05:19:21;2.27;;;2.07;;
26594;SDS011;14238;49.496;8.154;2024-02-15T05:21:48;2.93;;;2.10;;
26594;SDS011;14238;49.496;8.154;2024-02-15T05:24:17;2.40;;;2.20;;
26594;SDS011;14238;49.496;8.154;2024-02-15T05:26:44;3.00;;;2.80;;
26594;SDS011;14238;49.496;8.154;2024-02-15T05:29:17;3.83;;;2.73;;
26594;SDS011;14238;49.496;8.154;2024-02-15T05:31:42;2.23;;;1.90;;
26594;SDS011;14238;49.496;8.154;2024-02-15T05:34:09;3.27;;;2.07;;
26594;SDS011;14238;49.496;8.154;2024-02-15T05:36:36;2.93;;;2.07;;
26594;SDS011;14238;49.496;8.154;2024-02-15T05:39:03;4.27;;;1.90;;
26594;SDS011;14238;49.496;8.154;2024-02-15T05:41:30;5.57;;;3.23;;
26594;SDS011;14238;49.496;8.154;2024-02-15T05:43:57;2.70;;;1.80;;
26594;SDS011;14238;49.496;8.154;2024-02-15T05:46:23;3.30;;;2.40;;
26594;SDS011;14238;49.496;8.154;2024-02-15T05:48:49;2.83;;;2.10;;
26594;SDS011;14238;49.496;8.154;2024-02-15T05:51:15;3.00;;;2.17;;
26594;SDS011;14238;49.496;8.154;2024-02-15T05:53:41;3.93;;;2.60;;
26594;SDS011;14238;49.496;8.154;2024-02-15T05:56:07;3.93;;;3.63;;
26594;SDS011;14238;49.496;8.154;2024-02-15T05:58:34;4.63;;;3.60;;
26594;SDS011;14238;49.496;8.154;2024-02-15T06:01:00;4.10;;;3.77;;
26594;SDS011;14238;49.496;8.154;2024-02-15T06:03:28;4.57;;;3.60;;
26594;SDS011;14238;49.496;8.154;2024-02-15T06:05:54;7.33;;;3.00;;
26594;SDS011;14238;49.496;8.154;2024-02-15T06:08:27;5.63;;;3.70;;
26594;SDS011;14238;49.496;8.154;2024-02-15T06:10:56;4.13;;;3.70;;
26594;SDS011;14238;49.496;8.154;2024-02-15T06:13:22;12.67;;;10.23;;
26594;SDS011;14238;49.496;8.154;2024-02-15T06:15:48;4.23;;;3.60;;
26594;SDS011;14238;49.496;8.154;2024-02-15T06:20:49;8.63;;;7.70;;
26594;SDS011;14238;49.496;8.154;2024-02-15T06:23:18;17.23;;;15.13;;
26594;SDS011;14238;49.496;8.154;2024-02-15T06:25:44;4.43;;;4.03;;
26594;SDS011;14238;49.496;8.154;2024-02-15T06:28:12;6.50;;;5.13;;
26594;SDS011;14238;49.496;8.154;2024-02-15T06:30:44;2.40;;;1.83;;
26594;SDS011;14238;49.496;8.154;2024-02-15T06:33:31;2.87;;;2.43;;
26594;SDS011;14238;49.496;8.154;2024-02-15T06:36:15;3.37;;;3.07;;
26594;SDS011;14238;49.496;8.154;2024-02-15T06:38:59;3.07;;;2.87;;
26594;SDS011;14238;49.496;8.154;2024-02-15T06:41:43;3.80;;;2.93;;
26594;SDS011;14238;49.496;8.154;2024-02-15T06:44:09;2.97;;;2.60;;
26594;SDS011;14238;49.496;8.154;2024-02-15T06:46:34;2.33;;;2.17;;
26594;SDS011;14238;49.496;8.154;2024-02-15T06:49:00;3.27;;;2.97;;
26594;SDS011;14238;49.496;8.154;2024-02-15T06:51:26;3.13;;;2.67;;
26594;SDS011;14238;49.496;8.154;2024-02-15T06:53:51;4.03;;;3.73;;
26594;SDS011;14238;49.496;8.154;2024-02-15T06:56:20;11.63;;;9.17;;
26594;SDS011;14238;49.496;8.154;2024-02-15T06:58:46;4.97;;;4.47;;
26594;SDS011;14238;49.496;8.154;2024-02-15T07:01:13;3.23;;;3.00;;
26594;SDS011;14238;49.496;8.154;2024-02-15T07:03:41;8.13;;;5.67;;
26594;SDS011;14238;49.496;8.154;2024-02-15T07:06:10;5.20;;;4.70;;
26594;SDS011;14238;49.496;8.154;2024-02-15T07:08:38;7.87;;;5.13;;
26594;SDS011;14238;49.496;8.154;2024-02-15T07:11:06;5.40;;;4.30;;
26594;SDS011;14238;49.496;8.154;2024-02-15T07:13:34;6.47;;;4.00;;
26594;SDS011;14238;49.496;8.154;2024-02-15T07:16:06;3.90;;;3.30;;
26594;SDS011;14238;49.496;8.154;2024-02-15T07:18:35;2.73;;;2.53;;
26594;SDS011;14238;49.496;8.154;2024-02-15T07:21:00;1.97;;;1.87;;
26594;SDS011;14238;49.496;8.154;2024-02-15T07:23:28;4.43;;;2.50;;
26594;SDS011;14238;49.496;8.154;2024-02-15T07:25:54;2.00;;;1.90;;
26594;SDS011;14238;49.496;8.154;2024-02-15T07:28:20;2.57;;;2.17;;
26594;SDS011;14238;49.496;8.154;2024-02-15T07:30:46;3.80;;;3.00;;
26594;SDS011;14238;49.496;8.154;2024-02-15T07:33:13;3.10;;;2.90;;
26594;SDS011;14238;49.496;8.154;2024-02-15T07:35:41;3.50;;;3.00;;
26594;SDS011;14238;49.496;8.154;2024-02-15T07:38:08;2.50;;;1.97;;
26594;SDS011;14238;49.496;8.154;2024-02-15T07:40:33;4.67;;;2.57;;
26594;SDS011;14238;49.496;8.154;2024-02-15T07:43:00;3.23;;;3.00;;
26594;SDS011;14238;49.496;8.154;2024-02-15T07:45:28;3.37;;;2.63;;
26594;SDS011;14238;49.496;8.154;2024-02-15T07:47:54;5.57;;;4.83;;
26594;SDS011;14238;49.496;8.154;2024-02-15T07:50:20;6.10;;;5.50;;
26594;SDS011;14238;49.496;8.154;2024-02-15T07:52:47;10.57;;;7.20;;
26594;SDS011;14238;49.496;8.154;2024-02-15T07:55:13;6.00;;;5.00;;
26594;SDS011;14238;49.496;8.154;2024-02-15T07:57:39;5.77;;;5.27;;
26594;SDS011;14238;49.496;8.154;2024-02-15T08:00:05;10.60;;;4.57;;
26594;SDS011;14238;49.496;8.154;2024-02-15T08:02:35;5.23;;;4.73;;
26594;SDS011;14238;49.496;8.154;2024-02-15T08:05:05;5.23;;;4.83;;
26594;SDS011;14238;49.496;8.154;2024-02-15T08:07:35;6.07;;;5.27;;
26594;SDS011;14238;49.496;8.154;2024-02-15T08:10:06;6.43;;;4.27;;
26594;SDS011;14238;49.496;8.154;2024-02-15T08:12:37;3.87;;;3.47;;
26594;SDS011;14238;49.496;8.154;2024-02-15T08:15:06;8.13;;;5.87;;
26594;SDS011;14238;49.496;8.154;2024-02-15T08:17:37;13.70;;;8.77;;
26594;SDS011;14238;49.496;8.154;2024-02-15T08:20:09;11.87;;;9.63;;
26594;SDS011;14238;49.496;8.154;2024-02-15T08:22:36;11.00;;;9.20;;
26594;SDS011;14238;49.496;8.154;2024-02-15T08:25:08;10.80;;;9.67;;
26594;SDS011;14238;49.496;8.154;2024-02-15T08:27:35;9.50;;;8.30;;
26594;SDS011;14238;49.496;8.154;2024-02-15T08:30:09;7.83;;;7.03;;
26594;SDS011;14238;49.496;8.154;2024-02-15T08:32:39;5.50;;;3.97;;
26594;SDS011;14238;49.496;8.154;2024-02-15T08:35:10;3.80;;;3.40;;
26594;SDS011;14238;49.496;8.154;2024-02-15T08:37:37;3.60;;;1.73;;
26594;SDS011;14238;49.496;8.154;2024-02-15T08:40:04;3.60;;;1.50;;
26594;SDS011;14238;49.496;8.154;2024-02-15T08:42:37;2.03;;;1.20;;
26594;SDS011;14238;49.496;8.154;2024-02-15T08:45:03;2.13;;;1.87;;
26594;SDS011;14238;49.496;8.154;2024-02-15T08:47:30;3.20;;;1.77;;
26594;SDS011;14238;49.496;8.154;2024-02-15T08:49:55;4.00;;;2.37;;
26594;SDS011;14238;49.496;8.154;2024-02-15T08:52:21;1.53;;;1.27;;
26594;SDS011;14238;49.496;8.154;2024-02-15T08:54:46;2.30;;;1.33;;
26594;SDS011;14238;49.496;8.154;2024-02-15T08:57:12;2.07;;;1.93;;
26594;SDS011;14238;49.496;8.154;2024-02-15T08:59:38;3.07;;;1.90;;
26594;SDS011;14238;49.496;8.154;2024-02-15T09:02:04;2.20;;;1.70;;
26594;SDS011;14238;49.496;8.154;2024-02-15T09:04:30;1.73;;;1.60;;
26594;SDS011;14238;49.496;8.154;2024-02-15T09:06:56;3.20;;;2.70;;
26594;SDS011;14238;49.496;8.154;2024-02-15T09:09:21;2.23;;;1.57;;
26594;SDS011;14238;49.496;8.154;2024-02-15T09:11:47;3.07;;;2.20;;
26594;SDS011;14238;49.496;8.154;2024-02-15T09:14:12;2.70;;;2.50;;
26594;SDS011;14238;49.496;8.154;2024-02-15T09:16:38;2.67;;;2.13;;
26594;SDS011;14238;49.496;8.154;2024-02-15T09:19:04;2.63;;;2.43;;
26594;SDS011;14238;49.496;8.154;2024-02-15T09:21:31;2.00;;;1.90;;
26594;SDS011;14238;49.496;8.154;2024-02-15T09:23:58;3.27;;;1.83;;
26594;SDS011;14238;49.496;8.154;2024-02-15T09:26:24;2.80;;;2.10;;
26594;SDS011;14238;49.496;8.154;2024-02-15T09:28:50;2.50;;;1.87;;
26594;SDS011;14238;49.496;8.154;2024-02-15T09:31:15;5.30;;;4.90;;
26594;SDS011;14238;49.496;8.154;2024-02-15T09:33:41;8.47;;;7.70;;
26594;SDS011;14238;49.496;8.154;2024-02-15T09:36:06;9.87;;;9.00;;
26594;SDS011;14238;49.496;8.154;2024-02-15T09:38:33;8.60;;;7.80;;
26594;SDS011;14238;49.496;8.154;2024-02-15T09:40:58;8.37;;;7.67;;
26594;SDS011;14238;49.496;8.154;2024-02-15T09:43:24;6.37;;;5.90;;
26594;SDS011;14238;49.496;8.154;2024-02-15T09:45:51;5.70;;;5.20;;
26594;SDS011;14238;49.496;8.154;2024-02-15T09:48:20;5.00;;;4.60;;
26594;SDS011;14238;49.496;8.154;2024-02-15T09:50:49;5.40;;;5.00;;
26594;SDS011;14238;49.496;8.154;2024-02-15T09:53:20;5.40;;;5.00;;
26594;SDS011;14238;49.496;8.154;2024-02-15T09:55:46;5.53;;;5.13;;
26594;SDS011;14238;49.496;8.154;2024-02-15T09:58:13;5.27;;;4.77;;
26594;SDS011;14238;49.496;8.154;2024-02-15T10:00:40;5.13;;;4.20;;
26594;SDS011;14238;49.496;8.154;2024-02-15T10:03:06;6.00;;;4.57;;
26594;SDS011;14238;49.496;8.154;2024-02-15T10:05:32;5.20;;;4.57;;
26594;SDS011;14238;49.496;8.154;2024-02-15T10:07:58;5.77;;;4.80;;
26594;SDS011;14238;49.496;8.154;2024-02-15T10:10:25;5.80;;;5.20;;
26594;SDS011;14238;49.496;8.154;2024-02-15T10:12:52;7.13;;;4.87;;
26594;SDS011;14238;49.496;8.154;2024-02-15T10:18:01;4.47;;;3.60;;
26594;SDS011;14238;49.496;8.154;2024-02-15T10:20:28;4.30;;;3.90;;
26594;SDS011;14238;49.496;8.154;2024-02-15T10:25:33;4.87;;;3.40;;
26594;SDS011;14238;49.496;8.154;2024-02-15T10:28:03;3.57;;;3.27;;
26594;SDS011;14238;49.496;8.154;2024-02-15T10:30:32;3.67;;;3.37;;
26594;SDS011;14238;49.496;8.154;2024-02-15T10:33:02;10.77;;;3.00;;
26594;SDS011;14238;49.496;8.154;2024-02-15T10:35:28;3.37;;;2.90;;
26594;SDS011;14238;49.496;8.154;2024-02-15T10:38:05;4.10;;;2.70;;
26594;SDS011;14238;49.496;8.154;2024-02-15T10:40:32;4.30;;;3.60;;
26594;SDS011;14238;49.496;8.154;2024-02-15T10:42:58;5.63;;;3.97;;
26594;SDS011;14238;49.496;8.154;2024-02-15T10:45:24;2.93;;;2.63;;
26594;SDS011;14238;49.496;8.154;2024-02-15T10:47:50;5.27;;;2.67;;
26594;SDS011;14238;49.496;8.154;2024-02-15T10:50:17;2.87;;;2.67;;
26594;SDS011;14238;49.496;8.154;2024-02-15T10:52:55;3.47;;;2.90;;
26594;SDS011;14238;49.496;8.154;2024-02-15T10:55:38;2.93;;;2.63;;
26594;SDS011;14238;49.496;8.154;2024-02-15T10:58:08;3.10;;;2.33;;
26594;SDS011;14238;49.496;8.154;2024-02-15T11:00:38;6.23;;;2.57;;
26594;SDS011;14238;49.496;8.154;2024-02-15T11:03:07;4.57;;;3.00;;
26594;SDS011;14238;49.496;8.154;2024-02-15T11:05:36;4.13;;;2.57;;
26594;SDS011;14238;49.496;8.154;2024-02-15T11:08:04;2.43;;;2.20;;
26594;SDS011;14238;49.496;8.154;2024-02-15T11:10:31;2.60;;;2.40;;
26594;SDS011;14238;49.496;8.154;2024-02-15T11:12:58;3.07;;;2.20;;
26594;SDS011;14238;49.496;8.154;2024-02-15T11:15:41;2.30;;;2.10;;
26594;SDS011;14238;49.496;8.154;2024-02-15T11:21:24;1.87;;;1.73;;
26594;SDS011;14238;49.496;8.154;2024-02-15T11:24:26;3.60;;;1.50;;
26594;SDS011;14238;49.496;8.154;2024-02-15T11:26:53;1.90;;;1.50;;
26594;SDS011;14238;49.496;8.154;2024-02-15T11:32:52;2.47;;;1.53;;
26594;SDS011;14238;49.496;8.154;2024-02-15T11:35:18;1.60;;;1.50;;
26594;SDS011;14238;49.496;8.154;2024-02-15T11:40:13;2.27;;;1.40;;
26594;SDS011;14238;49.496;8.154;2024-02-15T11:42:53;3.00;;;1.60;;
26594;SDS011;14238;49.496;8.154;2024-02-15T11:45:26;3.17;;;1.73;;
26594;SDS011;14238;49.496;8.154;2024-02-15T11:47:58;1.83;;;1.27;;
26594;SDS011;14238;49.496;8.154;2024-02-15T11:50:24;2.83;;;1.53;;
26594;SDS011;14238;49.496;8.154;2024-02-15T11:52:52;1.60;;;1.43;;
26594;SDS011;14238;49.496;8.154;2024-02-15T11:55:30;1.93;;;1.70;;
26594;SDS011;14238;49.496;8.154;2024-02-15T11:58:04;1.93;;;1.70;;
26594;SDS011;14238;49.496;8.154;2024-02-15T12:00:41;2.43;;;1.50;;
26594;SDS011;14238;49.496;8.154;2024-02-15T12:03:26;1.53;;;1.40;;
26594;SDS011;14238;49.496;8.154;2024-02-15T12:06:10;1.73;;;1.60;;
26594;SDS011;14238;49.496;8.154;2024-02-15T12:08:54;1.63;;;1.50;;
26594;SDS011;14238;49.496;8.154;2024-02-15T12:11:38;2.33;;;1.70;;
26594;SDS011;14238;49.496;8.154;2024-02-15T12:14:23;2.20;;;1.43;;
26594;SDS011;14238;49.496;8.154;2024-02-15T12:17:08;1.63;;;1.53;;
26594;SDS011;14238;49.496;8.154;2024-02-15T12:19:54;2.67;;;1.50;;
26594;SDS011;14238;49.496;8.154;2024-02-15T12:25:03;2.40;;;1.57;;
26594;SDS011;14238;49.496;8.154;2024-02-15T12:27:37;2.60;;;1.70;;
26594;SDS011;14238;49.496;8.154;2024-02-15T12:30:04;2.80;;;1.57;;
26594;SDS011;14238;49.496;8.154;2024-02-15T12:32:32;1.23;;;1.10;;
26594;SDS011;14238;49.496;8.154;2024-02-15T12:35:31;1.83;;;1.73;;
26594;SDS011;14238;49.496;8.154;2024-02-15T12:38:00;2.00;;;1.80;;
26594;SDS011;14238;49.496;8.154;2024-02-15T12:40:30;1.60;;;1.30;;
26594;SDS011;14238;49.496;8.154;2024-02-15T12:42:57;1.90;;;1.10;;
26594;SDS011;14238;49.496;8.154;2024-02-15T12:45:24;4.90;;;1.77;;
26594;SDS011;14238;49.496;8.154;2024-02-15T12:47:53;2.43;;;1.33;;
26594;SDS011;14238;49.496;8.154;2024-02-15T12:50:20;2.03;;;1.80;;
26594;SDS011;14238;49.496;8.154;2024-02-15T12:52:50;1.60;;;1.50;;
26594;SDS011;14238;49.496;8.154;2024-02-15T12:55:22;2.30;;;1.27;;
26594;SDS011;14238;49.496;8.154;2024-02-15T12:57:52;1.70;;;1.60;;
26594;SDS011;14238;49.496;8.154;2024-02-15T13:00:21;3.80;;;1.80;;
26594;SDS011;14238;49.496;8.154;2024-02-15T13:02:52;2.60;;;1.50;;
26594;SDS011;14238;49.496;8.154;2024-02-15T13:05:19;2.20;;;2.10;;
26594;SDS011;14238;49.496;8.154;2024-02-15T13:07:48;3.23;;;2.17;;
26594;SDS011;14238;49.496;8.154;2024-02-15T13:10:14;1.97;;;1.80;;
26594;SDS011;14238;49.496;8.154;2024-02-15T13:12:43;4.03;;;2.63;;
26594;SDS011;14238;49.496;8.154;2024-02-15T13:15:10;3.40;;;2.03;;
26594;SDS011;14238;49.496;8.154;2024-02-15T13:17:45;3.60;;;2.80;;
26594;SDS011;14238;49.496;8.154;2024-02-15T13:20:12;2.03;;;1.70;;
26594;SDS011;14238;49.496;8.154;2024-02-15T13:22:39;6.40;;;2.50;;
26594;SDS011;14238;49.496;8.154;2024-02-15T13:25:06;2.03;;;1.93;;
26594;SDS011;14238;49.496;8.154;2024-02-15T13:27:33;2.53;;;1.73;;
26594;SDS011;14238;49.496;8.154;2024-02-15T13:29:59;1.93;;;1.83;;
26594;SDS011;14238;49.496;8.154;2024-02-15T13:32:25;1.80;;;1.70;;
26594;SDS011;14238;49.496;8.154;2024-02-15T13:34:51;3.20;;;2.30;;
26594;SDS011;14238;49.496;8.154;2024-02-15T13:37:18;2.73;;;2.53;;
26594;SDS011;14238;49.496;8.154;2024-02-15T13:39:45;2.10;;;1.90;;
26594;SDS011;14238;49.496;8.154;2024-02-15T13:42:14;2.13;;;1.90;;
26594;SDS011;14238;49.496;8.154;2024-02-15T13:44:41;2.87;;;1.80;;
26594;SDS011;14238;49.496;8.154;2024-02-15T13:47:08;5.33;;;1.87;;
26594;SDS011;14238;49.496;8.154;2024-02-15T13:49:33;2.83;;;2.10;;
26594;SDS011;14238;49.496;8.154;2024-02-15T13:51:59;3.40;;;2.37;;
26594;SDS011;14238;49.496;8.154;2024-02-15T13:54:29;3.90;;;1.90;;
26594;SDS011;14238;49.496;8.154;2024-02-15T13:56:55;4.03;;;2.00;;
26594;SDS011;14238;49.496;8.154;2024-02-15T13:59:21;2.47;;;2.27;;
26594;SDS011;14238;49.496;8.154;2024-02-15T14:01:48;3.60;;;2.77;;
26594;SDS011;14238;49.496;8.154;2024-02-15T14:04:14;5.40;;;2.93;;
26594;SDS011;14238;49.496;8.154;2024-02-15T14:06:41;4.13;;;3.27;;
26594;SDS011;14238;49.496;8.154;2024-02-15T14:09:09;3.67;;;3.30;;
26594;SDS011;14238;49.496;8.154;2024-02-15T14:11:38;5.00;;;2.80;;
26594;SDS011;14238;49.496;8.154;2024-02-15T14:14:04;7.30;;;3.73;;
26594;SDS011;14238;49.496;8.154;2024-02-15T14:16:32;3.83;;;2.97;;
26594;SDS011;14238;49.496;8.154;2024-02-15T14:18:58;4.67;;;3.83;;
26594;SDS011;14238;49.496;8.154;2024-02-15T14:21:24;3.40;;;3.00;;
26594;SDS011;14238;49.496;8.154;2024-02-15T14:23:50;4.93;;;3.00;;
26594;SDS011;14238;49.496;8.154;2024-02-15T14:26:16;6.13;;;3.83;;
26594;SDS011;14238;49.496;8.154;2024-02-15T14:28:42;6.77;;;6.10;;
26594;SDS011;14238;49.496;8.154;2024-02-15T14:31:10;4.70;;;4.30;;
26594;SDS011;14238;49.496;8.154;2024-02-15T14:33:54;4.23;;;3.80;;
26594;SDS011;14238;49.496;8.154;2024-02-15T14:36:20;2.70;;;2.50;;
26594;SDS011;14238;49.496;8.154;2024-02-15T14:38:46;2.77;;;2.57;;
26594;SDS011;14238;49.496;8.154;2024-02-15T14:41:12;3.70;;;2.47;;
26594;SDS011;14238;49.496;8.154;2024-02-15T14:43:38;2.30;;;2.10;;
26594;SDS011;14238;49.496;8.154;2024-02-15T14:46:05;2.80;;;2.40;;
26594;SDS011;14238;49.496;8.154;2024-02-15T14:48:32;2.50;;;2.23;;
26594;SDS011;14238;49.496;8.154;2024-02-15T14:50:59;2.47;;;2.27;;
26594;SDS011;14238;49.496;8.154;2024-02-15T14:53:24;3.40;;;2.40;;
26594;SDS011;14238;49.496;8.154;2024-02-15T14:55:50;1.90;;;1.80;;
26594;SDS011;14238;49.496;8.154;2024-02-15T14:58:16;2.77;;;2.00;;
26594;SDS011;14238;49.496;8.154;2024-02-15T15:00:42;2.40;;;2.20;;
26594;SDS011;14238;49.496;8.154;2024-02-15T15:03:09;3.73;;;2.67;;
26594;SDS011;14238;49.496;8.154;2024-02-15T15:05:38;4.63;;;3.20;;
26594;SDS011;14238;49.496;8.154;2024-02-15T15:08:25;2.30;;;2.20;;
26594;SDS011;14238;49.496;8.154;2024-02-15T15:11:09;5.60;;;2.63;;
26594;SDS011;14238;49.496;8.154;2024-02-15T15:13:53;4.10;;;3.00;;